sensor_id;sensor_type;location;lat;lon;timestamp;P1;durP1;ratioP1;P2;durP2;ratioP2
22150;SDS011;11241;47.078;15.462;2022-07-23T00:02:09;8.98;;;7.40;;
22150;SDS011;11241;47.078;15.462;2022-07-23T00:04:27;8.48;;;7.20;;
22150;SDS011;11241;47.078;15.462;2022-07-23T00:06:45;7.97;;;7.15;;
22150;SDS011;11241;47.078;15.462;2022-07-23T00:09:03;10.18;;;7.53;;
22150;SDS011;11241;47.078;15.462;2022-07-23T00:11:21;8.75;;;7.85;;
22150;SDS011;11241;47.078;15.462;2022-07-23T00:13:39;11.90;;;7.50;;
22150;SDS011;11241;47.078;15.462;2022-07-23T00:15:57;12.05;;;7.30;;
22150;SDS011;11241;47.078;15.462;2022-07-23T00:18:14;8.88;;;7.05;;
22150;SDS011;11241;47.078;15.462;2022-07-23T00:20:32;14.43;;;7.28;;
22150;SDS011;11241;47.078;15.462;2022-07-23T00:22:51;8.20;;;7.40;;
22150;SDS011;11241;47.078;15.462;2022-07-23T00:25:09;14.57;;;7.72;;
22150;SDS011;11241;47.078;15.462;2022-07-23T00:27:44;8.85;;;7.30;;
22150;SDS011;11241;47.078;15.462;2022-07-23T00:30:02;7.85;;;7.05;;
22150;SDS011;11241;47.078;15.462;2022-07-23T00:32:20;8.30;;;7.03;;
22150;SDS011;11241;47.078;15.462;2022-07-23T00:34:58;13.38;;;7.70;;
22150;SDS011;11241;47.078;15.462;2022-07-23T00:37:16;8.38;;;6.72;;
22150;SDS011;11241;47.078;15.462;2022-07-23T00:39:33;7.97;;;7.18;;
22150;SDS011;11241;47.078;15.462;2022-07-23T00:41:51;8.68;;;6.93;;
22150;SDS011;11241;47.078;15.462;2022-07-23T00:44:20;8.18;;;6.75;;
22150;SDS011;11241;47.078;15.462;2022-07-23T00:46:38;8.80;;;7.28;;
22150;SDS011;11241;47.078;15.462;2022-07-23T00:48:56;7.97;;;7.18;;
22150;SDS011;11241;47.078;15.462;2022-07-23T00:51:17;9.05;;;7.10;;
22150;SDS011;11241;47.078;15.462;2022-07-23T00:53:35;10.77;;;7.30;;
22150;SDS011;11241;47.078;15.462;2022-07-23T00:55:53;11.48;;;8.23;;
22150;SDS011;11241;47.078;15.462;2022-07-23T00:58:11;11.80;;;8.52;;
22150;SDS011;11241;47.078;15.462;2022-07-23T01:00:30;11.23;;;8.18;;
22150;SDS011;11241;47.078;15.462;2022-07-23T01:02:47;9.52;;;8.60;;
22150;SDS011;11241;47.078;15.462;2022-07-23T01:05:06;9.52;;;8.10;;
22150;SDS011;11241;47.078;15.462;2022-07-23T01:07:24;13.82;;;8.07;;
22150;SDS011;11241;47.078;15.462;2022-07-23T01:09:42;11.27;;;7.70;;
22150;SDS011;11241;47.078;15.462;2022-07-23T01:12:00;13.48;;;8.13;;
22150;SDS011;11241;47.078;15.462;2022-07-23T01:14:18;9.15;;;7.75;;
22150;SDS011;11241;47.078;15.462;2022-07-23T01:16:36;9.48;;;8.40;;
22150;SDS011;11241;47.078;15.462;2022-07-23T01:18:54;12.82;;;8.00;;
22150;SDS011;11241;47.078;15.462;2022-07-23T01:21:12;10.90;;;7.70;;
22150;SDS011;11241;47.078;15.462;2022-07-23T01:23:30;9.90;;;7.80;;
22150;SDS011;11241;47.078;15.462;2022-07-23T01:25:51;10.45;;;7.45;;
22150;SDS011;11241;47.078;15.462;2022-07-23T01:28:10;12.35;;;8.32;;
22150;SDS011;11241;47.078;15.462;2022-07-23T01:30:30;10.13;;;8.45;;
22150;SDS011;11241;47.078;15.462;2022-07-23T01:32:49;9.75;;;7.70;;
22150;SDS011;11241;47.078;15.462;2022-07-23T01:35:08;9.77;;;8.05;;
22150;SDS011;11241;47.078;15.462;2022-07-23T01:37:27;9.80;;;7.70;;
22150;SDS011;11241;47.078;15.462;2022-07-23T01:39:45;12.00;;;7.22;;
22150;SDS011;11241;47.078;15.462;2022-07-23T01:42:03;8.73;;;7.38;;
22150;SDS011;11241;47.078;15.462;2022-07-23T01:44:22;11.75;;;8.05;;
22150;SDS011;11241;47.078;15.462;2022-07-23T01:46:40;10.82;;;7.38;;
22150;SDS011;11241;47.078;15.462;2022-07-23T01:48:58;12.13;;;7.53;;
22150;SDS011;11241;47.078;15.462;2022-07-23T01:51:35;7.95;;;7.15;;
22150;SDS011;11241;47.078;15.462;2022-07-23T01:53:59;12.38;;;7.88;;
22150;SDS011;11241;47.078;15.462;2022-07-23T01:56:17;9.88;;;7.78;;
22150;SDS011;11241;47.078;15.462;2022-07-23T01:58:37;12.98;;;8.20;;
22150;SDS011;11241;47.078;15.462;2022-07-23T02:00:55;11.68;;;8.00;;
22150;SDS011;11241;47.078;15.462;2022-07-23T02:03:13;11.07;;;7.20;;
22150;SDS011;11241;47.078;15.462;2022-07-23T02:05:31;10.73;;;7.63;;
22150;SDS011;11241;47.078;15.462;2022-07-23T02:07:50;8.90;;;7.72;;
22150;SDS011;11241;47.078;15.462;2022-07-23T02:10:08;8.45;;;7.65;;
22150;SDS011;11241;47.078;15.462;2022-07-23T02:12:27;8.57;;;7.35;;
22150;SDS011;11241;47.078;15.462;2022-07-23T02:14:45;8.60;;;7.70;;
22150;SDS011;11241;47.078;15.462;2022-07-23T02:17:02;9.82;;;7.53;;
22150;SDS011;11241;47.078;15.462;2022-07-23T02:19:20;11.00;;;8.30;;
22150;SDS011;11241;47.078;15.462;2022-07-23T02:21:38;9.88;;;8.00;;
22150;SDS011;11241;47.078;15.462;2022-07-23T02:23:56;11.38;;;7.72;;
22150;SDS011;11241;47.078;15.462;2022-07-23T02:26:14;12.25;;;8.07;;
22150;SDS011;11241;47.078;15.462;2022-07-23T02:28:38;11.88;;;8.05;;
22150;SDS011;11241;47.078;15.462;2022-07-23T02:30:56;10.60;;;8.95;;
22150;SDS011;11241;47.078;15.462;2022-07-23T02:33:14;10.70;;;7.70;;
22150;SDS011;11241;47.078;15.462;2022-07-23T02:35:32;9.18;;;8.07;;
22150;SDS011;11241;47.078;15.462;2022-07-23T02:37:51;9.80;;;7.80;;
22150;SDS011;11241;47.078;15.462;2022-07-23T02:40:10;8.65;;;7.63;;
22150;SDS011;11241;47.078;15.462;2022-07-23T02:42:30;9.07;;;8.07;;
22150;SDS011;11241;47.078;15.462;2022-07-23T02:44:48;8.85;;;7.95;;
22150;SDS011;11241;47.078;15.462;2022-07-23T02:47:05;12.88;;;8.25;;
22150;SDS011;11241;47.078;15.462;2022-07-23T02:49:23;11.20;;;8.48;;
22150;SDS011;11241;47.078;15.462;2022-07-23T02:51:41;9.63;;;7.72;;
22150;SDS011;11241;47.078;15.462;2022-07-23T02:54:01;11.80;;;7.90;;
22150;SDS011;11241;47.078;15.462;2022-07-23T02:56:18;10.63;;;8.20;;
22150;SDS011;11241;47.078;15.462;2022-07-23T02:58:36;10.82;;;8.10;;
22150;SDS011;11241;47.078;15.462;2022-07-23T03:00:54;11.52;;;7.97;;
22150;SDS011;11241;47.078;15.462;2022-07-23T03:03:15;8.93;;;7.45;;
22150;SDS011;11241;47.078;15.462;2022-07-23T03:05:33;11.20;;;8.20;;
22150;SDS011;11241;47.078;15.462;2022-07-23T03:07:51;12.55;;;8.13;;
22150;SDS011;11241;47.078;15.462;2022-07-23T03:10:09;10.40;;;8.02;;
22150;SDS011;11241;47.078;15.462;2022-07-23T03:12:28;15.75;;;8.20;;
22150;SDS011;11241;47.078;15.462;2022-07-23T03:14:46;9.13;;;7.82;;
22150;SDS011;11241;47.078;15.462;2022-07-23T03:17:04;10.70;;;8.02;;
22150;SDS011;11241;47.078;15.462;2022-07-23T03:19:22;9.73;;;8.18;;
22150;SDS011;11241;47.078;15.462;2022-07-23T03:21:41;12.82;;;7.97;;
22150;SDS011;11241;47.078;15.462;2022-07-23T03:23:59;9.98;;;8.32;;
22150;SDS011;11241;47.078;15.462;2022-07-23T03:26:16;11.85;;;8.05;;
22150;SDS011;11241;47.078;15.462;2022-07-23T03:28:34;12.45;;;8.43;;
22150;SDS011;11241;47.078;15.462;2022-07-23T03:30:54;11.32;;;7.93;;
22150;SDS011;11241;47.078;15.462;2022-07-23T03:33:13;9.88;;;7.82;;
22150;SDS011;11241;47.078;15.462;2022-07-23T03:35:30;10.02;;;8.40;;
22150;SDS011;11241;47.078;15.462;2022-07-23T03:38:01;11.38;;;8.57;;
22150;SDS011;11241;47.078;15.462;2022-07-23T03:40:19;10.48;;;7.90;;
22150;SDS011;11241;47.078;15.462;2022-07-23T03:42:37;10.70;;;8.23;;
22150;SDS011;11241;47.078;15.462;2022-07-23T03:44:58;10.05;;;8.10;;
22150;SDS011;11241;47.078;15.462;2022-07-23T03:47:15;10.27;;;8.05;;
22150;SDS011;11241;47.078;15.462;2022-07-23T03:49:34;13.13;;;8.48;;
22150;SDS011;11241;47.078;15.462;2022-07-23T03:51:52;14.35;;;8.77;;
22150;SDS011;11241;47.078;15.462;2022-07-23T03:54:10;11.05;;;7.97;;
22150;SDS011;11241;47.078;15.462;2022-07-23T03:56:28;9.60;;;8.32;;
22150;SDS011;11241;47.078;15.462;2022-07-23T03:58:46;9.95;;;8.32;;
22150;SDS011;11241;47.078;15.462;2022-07-23T04:01:04;11.05;;;8.00;;
22150;SDS011;11241;47.078;15.462;2022-07-23T04:03:22;11.82;;;8.45;;
22150;SDS011;11241;47.078;15.462;2022-07-23T04:05:40;13.13;;;8.30;;
22150;SDS011;11241;47.078;15.462;2022-07-23T04:08:01;9.55;;;8.45;;
22150;SDS011;11241;47.078;15.462;2022-07-23T04:10:19;10.23;;;8.18;;
22150;SDS011;11241;47.078;15.462;2022-07-23T04:12:37;11.82;;;8.52;;
22150;SDS011;11241;47.078;15.462;2022-07-23T04:14:55;10.93;;;8.48;;
22150;SDS011;11241;47.078;15.462;2022-07-23T04:17:13;10.35;;;8.45;;
22150;SDS011;11241;47.078;15.462;2022-07-23T04:19:32;20.02;;;8.55;;
22150;SDS011;11241;47.078;15.462;2022-07-23T04:21:54;16.03;;;8.53;;
22150;SDS011;11241;47.078;15.462;2022-07-23T04:24:12;11.68;;;8.15;;
22150;SDS011;11241;47.078;15.462;2022-07-23T04:26:31;9.75;;;8.10;;
22150;SDS011;11241;47.078;15.462;2022-07-23T04:28:48;12.13;;;8.15;;
22150;SDS011;11241;47.078;15.462;2022-07-23T04:31:06;11.10;;;8.35;;
22150;SDS011;11241;47.078;15.462;2022-07-23T04:33:26;10.90;;;8.45;;
22150;SDS011;11241;47.078;15.462;2022-07-23T04:35:46;11.45;;;8.48;;
22150;SDS011;11241;47.078;15.462;2022-07-23T04:38:08;11.50;;;8.65;;
22150;SDS011;11241;47.078;15.462;2022-07-23T04:40:26;10.40;;;8.25;;
22150;SDS011;11241;47.078;15.462;2022-07-23T04:42:45;13.68;;;8.70;;
22150;SDS011;11241;47.078;15.462;2022-07-23T04:45:03;12.18;;;8.63;;
22150;SDS011;11241;47.078;15.462;2022-07-23T04:47:29;10.98;;;8.77;;
22150;SDS011;11241;47.078;15.462;2022-07-23T04:49:48;11.73;;;8.75;;
22150;SDS011;11241;47.078;15.462;2022-07-23T04:52:06;11.70;;;8.50;;
22150;SDS011;11241;47.078;15.462;2022-07-23T04:54:24;12.90;;;8.88;;
22150;SDS011;11241;47.078;15.462;2022-07-23T04:56:42;10.27;;;8.82;;
22150;SDS011;11241;47.078;15.462;2022-07-23T04:58:59;11.02;;;8.90;;
22150;SDS011;11241;47.078;15.462;2022-07-23T05:01:18;12.25;;;8.65;;
22150;SDS011;11241;47.078;15.462;2022-07-23T05:03:36;11.05;;;8.77;;
22150;SDS011;11241;47.078;15.462;2022-07-23T05:05:54;10.93;;;9.20;;
22150;SDS011;11241;47.078;15.462;2022-07-23T05:08:12;10.20;;;8.95;;
22150;SDS011;11241;47.078;15.462;2022-07-23T05:10:32;13.43;;;8.77;;
22150;SDS011;11241;47.078;15.462;2022-07-23T05:12:50;12.55;;;9.40;;
22150;SDS011;11241;47.078;15.462;2022-07-23T05:15:08;14.63;;;9.35;;
22150;SDS011;11241;47.078;15.462;2022-07-23T05:17:27;10.43;;;8.98;;
22150;SDS011;11241;47.078;15.462;2022-07-23T05:19:45;12.93;;;8.75;;
22150;SDS011;11241;47.078;15.462;2022-07-23T05:22:02;12.90;;;9.13;;
22150;SDS011;11241;47.078;15.462;2022-07-23T05:24:21;17.40;;;9.65;;
22150;SDS011;11241;47.078;15.462;2022-07-23T05:26:39;14.18;;;9.45;;
22150;SDS011;11241;47.078;15.462;2022-07-23T05:28:57;12.95;;;9.80;;
22150;SDS011;11241;47.078;15.462;2022-07-23T05:31:16;11.45;;;10.20;;
22150;SDS011;11241;47.078;15.462;2022-07-23T05:33:35;14.32;;;10.05;;
22150;SDS011;11241;47.078;15.462;2022-07-23T05:35:53;18.38;;;10.95;;
22150;SDS011;11241;47.078;15.462;2022-07-23T05:38:15;13.70;;;10.98;;
22150;SDS011;11241;47.078;15.462;2022-07-23T05:40:33;13.52;;;10.23;;
22150;SDS011;11241;47.078;15.462;2022-07-23T05:42:52;17.90;;;10.93;;
22150;SDS011;11241;47.078;15.462;2022-07-23T05:45:10;17.20;;;11.30;;
22150;SDS011;11241;47.078;15.462;2022-07-23T05:47:44;19.13;;;12.02;;
22150;SDS011;11241;47.078;15.462;2022-07-23T05:50:06;13.07;;;11.43;;
22150;SDS011;11241;47.078;15.462;2022-07-23T05:52:31;15.10;;;12.63;;
22150;SDS011;11241;47.078;15.462;2022-07-23T05:55:18;15.75;;;12.98;;
22150;SDS011;11241;47.078;15.462;2022-07-23T05:57:36;17.60;;;12.93;;
22150;SDS011;11241;47.078;15.462;2022-07-23T05:59:53;15.25;;;12.90;;
22150;SDS011;11241;47.078;15.462;2022-07-23T06:02:11;16.33;;;13.05;;
22150;SDS011;11241;47.078;15.462;2022-07-23T06:04:29;18.20;;;12.48;;
22150;SDS011;11241;47.078;15.462;2022-07-23T06:07:19;16.20;;;12.75;;
22150;SDS011;11241;47.078;15.462;2022-07-23T06:09:38;16.80;;;12.63;;
22150;SDS011;11241;47.078;15.462;2022-07-23T06:11:56;13.82;;;12.35;;
22150;SDS011;11241;47.078;15.462;2022-07-23T06:14:14;15.95;;;12.00;;
22150;SDS011;11241;47.078;15.462;2022-07-23T06:16:40;14.23;;;12.13;;
22150;SDS011;11241;47.078;15.462;2022-07-23T06:18:58;18.70;;;15.98;;
22150;SDS011;11241;47.078;15.462;2022-07-23T06:21:19;15.18;;;12.48;;
22150;SDS011;11241;47.078;15.462;2022-07-23T06:23:56;15.68;;;12.55;;
22150;SDS011;11241;47.078;15.462;2022-07-23T06:26:14;17.33;;;12.07;;
22150;SDS011;11241;47.078;15.462;2022-07-23T06:28:33;14.65;;;11.88;;
22150;SDS011;11241;47.078;15.462;2022-07-23T06:30:51;13.75;;;12.10;;
22150;SDS011;11241;47.078;15.462;2022-07-23T06:33:12;16.02;;;11.90;;
22150;SDS011;11241;47.078;15.462;2022-07-23T06:35:30;15.25;;;12.25;;
22150;SDS011;11241;47.078;15.462;2022-07-23T06:37:51;18.48;;;11.90;;
22150;SDS011;11241;47.078;15.462;2022-07-23T06:40:11;13.65;;;11.90;;
22150;SDS011;11241;47.078;15.462;2022-07-23T06:42:30;13.93;;;12.40;;
22150;SDS011;11241;47.078;15.462;2022-07-23T06:44:48;15.63;;;12.13;;
22150;SDS011;11241;47.078;15.462;2022-07-23T06:47:07;14.98;;;11.43;;
22150;SDS011;11241;47.078;15.462;2022-07-23T06:49:26;15.90;;;12.32;;
22150;SDS011;11241;47.078;15.462;2022-07-23T06:51:46;15.18;;;12.35;;
22150;SDS011;11241;47.078;15.462;2022-07-23T06:54:05;14.85;;;12.32;;
22150;SDS011;11241;47.078;15.462;2022-07-23T06:56:24;13.35;;;11.93;;
22150;SDS011;11241;47.078;15.462;2022-07-23T06:58:43;15.75;;;11.95;;
22150;SDS011;11241;47.078;15.462;2022-07-23T07:01:01;16.75;;;12.20;;
22150;SDS011;11241;47.078;15.462;2022-07-23T07:03:19;15.13;;;11.30;;
22150;SDS011;11241;47.078;15.462;2022-07-23T07:05:38;15.05;;;11.73;;
22150;SDS011;11241;47.078;15.462;2022-07-23T07:07:57;12.98;;;11.18;;
22150;SDS011;11241;47.078;15.462;2022-07-23T07:10:15;17.95;;;12.02;;
22150;SDS011;11241;47.078;15.462;2022-07-23T07:12:34;13.77;;;10.65;;
22150;SDS011;11241;47.078;15.462;2022-07-23T07:14:53;12.48;;;11.18;;
22150;SDS011;11241;47.078;15.462;2022-07-23T07:17:11;13.15;;;11.23;;
22150;SDS011;11241;47.078;15.462;2022-07-23T07:19:30;13.48;;;10.50;;
22150;SDS011;11241;47.078;15.462;2022-07-23T07:21:49;13.15;;;11.48;;
22150;SDS011;11241;47.078;15.462;2022-07-23T07:24:08;13.10;;;11.57;;
22150;SDS011;11241;47.078;15.462;2022-07-23T07:26:26;15.30;;;10.88;;
22150;SDS011;11241;47.078;15.462;2022-07-23T07:28:45;14.07;;;11.02;;
22150;SDS011;11241;47.078;15.462;2022-07-23T07:31:03;15.82;;;11.77;;
22150;SDS011;11241;47.078;15.462;2022-07-23T07:33:21;14.32;;;11.25;;
22150;SDS011;11241;47.078;15.462;2022-07-23T07:35:43;12.73;;;10.88;;
22150;SDS011;11241;47.078;15.462;2022-07-23T07:38:00;13.93;;;10.52;;
22150;SDS011;11241;47.078;15.462;2022-07-23T07:40:18;13.27;;;11.30;;
22150;SDS011;11241;47.078;15.462;2022-07-23T07:42:44;15.57;;;10.27;;
22150;SDS011;11241;47.078;15.462;2022-07-23T07:45:03;16.30;;;11.55;;
22150;SDS011;11241;47.078;15.462;2022-07-23T07:47:21;12.10;;;9.93;;
22150;SDS011;11241;47.078;15.462;2022-07-23T07:49:39;13.40;;;10.52;;
22150;SDS011;11241;47.078;15.462;2022-07-23T07:51:57;16.35;;;11.60;;
22150;SDS011;11241;47.078;15.462;2022-07-23T07:54:15;15.25;;;11.25;;
22150;SDS011;11241;47.078;15.462;2022-07-23T07:56:33;15.35;;;11.45;;
22150;SDS011;11241;47.078;15.462;2022-07-23T07:58:52;13.35;;;11.02;;
22150;SDS011;11241;47.078;15.462;2022-07-23T08:01:11;13.68;;;9.98;;
22150;SDS011;11241;47.078;15.462;2022-07-23T08:03:29;13.93;;;10.45;;
22150;SDS011;11241;47.078;15.462;2022-07-23T08:05:46;13.43;;;11.68;;
22150;SDS011;11241;47.078;15.462;2022-07-23T08:08:04;12.80;;;10.13;;
22150;SDS011;11241;47.078;15.462;2022-07-23T08:10:22;15.10;;;9.95;;
22150;SDS011;11241;47.078;15.462;2022-07-23T08:12:47;13.30;;;9.27;;
22150;SDS011;11241;47.078;15.462;2022-07-23T08:15:06;10.27;;;9.18;;
22150;SDS011;11241;47.078;15.462;2022-07-23T08:17:29;14.07;;;8.80;;
22150;SDS011;11241;47.078;15.462;2022-07-23T08:19:49;11.90;;;8.75;;
22150;SDS011;11241;47.078;15.462;2022-07-23T08:22:06;11.20;;;8.55;;
22150;SDS011;11241;47.078;15.462;2022-07-23T08:24:24;14.73;;;9.90;;
22150;SDS011;11241;47.078;15.462;2022-07-23T08:26:42;14.02;;;9.68;;
22150;SDS011;11241;47.078;15.462;2022-07-23T08:29:00;11.88;;;10.07;;
22150;SDS011;11241;47.078;15.462;2022-07-23T08:31:18;10.65;;;9.40;;
22150;SDS011;11241;47.078;15.462;2022-07-23T08:33:36;14.85;;;9.65;;
22150;SDS011;11241;47.078;15.462;2022-07-23T08:35:54;14.82;;;9.70;;
22150;SDS011;11241;47.078;15.462;2022-07-23T08:38:13;13.98;;;10.05;;
22150;SDS011;11241;47.078;15.462;2022-07-23T08:40:32;11.85;;;9.70;;
22150;SDS011;11241;47.078;15.462;2022-07-23T08:42:53;17.05;;;9.75;;
22150;SDS011;11241;47.078;15.462;2022-07-23T08:45:11;11.27;;;9.63;;
22150;SDS011;11241;47.078;15.462;2022-07-23T08:47:30;10.02;;;8.80;;
22150;SDS011;11241;47.078;15.462;2022-07-23T08:49:48;11.20;;;9.50;;
22150;SDS011;11241;47.078;15.462;2022-07-23T08:52:06;9.57;;;8.60;;
22150;SDS011;11241;47.078;15.462;2022-07-23T08:54:24;16.70;;;9.30;;
22150;SDS011;11241;47.078;15.462;2022-07-23T08:56:42;11.05;;;8.45;;
22150;SDS011;11241;47.078;15.462;2022-07-23T08:59:00;9.55;;;8.10;;
22150;SDS011;11241;47.078;15.462;2022-07-23T09:01:18;11.73;;;8.32;;
22150;SDS011;11241;47.078;15.462;2022-07-23T09:03:36;11.73;;;8.90;;
22150;SDS011;11241;47.078;15.462;2022-07-23T09:05:58;11.20;;;9.82;;
22150;SDS011;11241;47.078;15.462;2022-07-23T09:08:17;12.02;;;9.07;;
22150;SDS011;11241;47.078;15.462;2022-07-23T09:13:02;11.05;;;9.27;;
22150;SDS011;11241;47.078;15.462;2022-07-23T09:15:21;12.93;;;9.07;;
22150;SDS011;11241;47.078;15.462;2022-07-23T09:17:41;9.82;;;8.82;;
22150;SDS011;11241;47.078;15.462;2022-07-23T09:20:07;15.95;;;9.82;;
22150;SDS011;11241;47.078;15.462;2022-07-23T09:22:26;14.75;;;9.30;;
22150;SDS011;11241;47.078;15.462;2022-07-23T09:27:21;13.20;;;10.05;;
22150;SDS011;11241;47.078;15.462;2022-07-23T09:29:39;13.88;;;9.27;;
22150;SDS011;11241;47.078;15.462;2022-07-23T09:31:58;11.02;;;8.75;;
22150;SDS011;11241;47.078;15.462;2022-07-23T09:34:20;11.30;;;10.02;;
22150;SDS011;11241;47.078;15.462;2022-07-23T09:36:40;13.95;;;9.85;;
22150;SDS011;11241;47.078;15.462;2022-07-23T09:38:57;10.52;;;9.18;;
22150;SDS011;11241;47.078;15.462;2022-07-23T09:41:15;14.00;;;9.23;;
22150;SDS011;11241;47.078;15.462;2022-07-23T09:43:33;10.70;;;9.27;;
22150;SDS011;11241;47.078;15.462;2022-07-23T09:45:51;12.27;;;8.95;;
22150;SDS011;11241;47.078;15.462;2022-07-23T09:48:09;11.75;;;8.90;;
22150;SDS011;11241;47.078;15.462;2022-07-23T09:50:28;12.50;;;8.73;;
22150;SDS011;11241;47.078;15.462;2022-07-23T09:52:46;10.43;;;8.90;;
22150;SDS011;11241;47.078;15.462;2022-07-23T09:55:05;9.45;;;7.50;;
22150;SDS011;11241;47.078;15.462;2022-07-23T09:57:23;10.70;;;7.20;;
22150;SDS011;11241;47.078;15.462;2022-07-23T09:59:42;13.43;;;6.50;;
22150;SDS011;11241;47.078;15.462;2022-07-23T10:02:00;19.90;;;6.85;;
22150;SDS011;11241;47.078;15.462;2022-07-23T10:04:24;7.75;;;6.00;;
22150;SDS011;11241;47.078;15.462;2022-07-23T10:06:51;8.13;;;6.03;;
22150;SDS011;11241;47.078;15.462;2022-07-23T10:09:29;10.52;;;6.38;;
22150;SDS011;11241;47.078;15.462;2022-07-23T10:12:12;11.95;;;6.72;;
22150;SDS011;11241;47.078;15.462;2022-07-23T10:14:43;9.05;;;6.30;;
22150;SDS011;11241;47.078;15.462;2022-07-23T10:17:02;12.88;;;6.55;;
22150;SDS011;11241;47.078;15.462;2022-07-23T10:19:20;8.10;;;6.10;;
22150;SDS011;11241;47.078;15.462;2022-07-23T10:21:40;12.95;;;5.80;;
22150;SDS011;11241;47.078;15.462;2022-07-23T10:26:35;32.05;;;7.05;;
22150;SDS011;11241;47.078;15.462;2022-07-23T10:37:36;9.77;;;6.60;;
22150;SDS011;11241;47.078;15.462;2022-07-23T10:39:24;11.90;;;7.30;;
22150;SDS011;11241;47.078;15.462;2022-07-23T10:41:44;9.00;;;6.75;;
22150;SDS011;11241;47.078;15.462;2022-07-23T10:46:27;10.52;;;7.35;;
22150;SDS011;11241;47.078;15.462;2022-07-23T10:52:14;13.73;;;7.97;;
22150;SDS011;11241;47.078;15.462;2022-07-23T10:54:22;9.23;;;7.72;;
22150;SDS011;11241;47.078;15.462;2022-07-23T10:59:13;12.98;;;7.70;;
22150;SDS011;11241;47.078;15.462;2022-07-23T11:01:32;11.60;;;8.00;;
22150;SDS011;11241;47.078;15.462;2022-07-23T11:03:57;8.75;;;7.45;;
22150;SDS011;11241;47.078;15.462;2022-07-23T11:06:17;10.15;;;8.30;;
22150;SDS011;11241;47.078;15.462;2022-07-23T11:08:34;11.75;;;8.63;;
22150;SDS011;11241;47.078;15.462;2022-07-23T11:10:53;10.57;;;8.07;;
22150;SDS011;11241;47.078;15.462;2022-07-23T11:16:03;9.65;;;7.78;;
22150;SDS011;11241;47.078;15.462;2022-07-23T11:18:16;13.73;;;7.22;;
22150;SDS011;11241;47.078;15.462;2022-07-23T11:20:34;9.90;;;7.70;;
22150;SDS011;11241;47.078;15.462;2022-07-23T11:22:54;13.00;;;8.85;;
22150;SDS011;11241;47.078;15.462;2022-07-23T11:27:43;8.63;;;7.72;;
22150;SDS011;11241;47.078;15.462;2022-07-23T11:30:01;9.38;;;7.28;;
22150;SDS011;11241;47.078;15.462;2022-07-23T11:32:21;9.50;;;7.60;;
22150;SDS011;11241;47.078;15.462;2022-07-23T11:34:44;10.52;;;7.80;;
22150;SDS011;11241;47.078;15.462;2022-07-23T11:37:12;16.25;;;6.72;;
22150;SDS011;11241;47.078;15.462;2022-07-23T11:39:30;10.65;;;6.60;;
22150;SDS011;11241;47.078;15.462;2022-07-23T11:41:48;8.15;;;6.30;;
22150;SDS011;11241;47.078;15.462;2022-07-23T11:44:23;10.15;;;6.15;;
22150;SDS011;11241;47.078;15.462;2022-07-23T11:46:53;7.40;;;6.68;;
22150;SDS011;11241;47.078;15.462;2022-07-23T11:49:11;7.40;;;6.47;;
22150;SDS011;11241;47.078;15.462;2022-07-23T11:51:29;10.02;;;7.03;;
22150;SDS011;11241;47.078;15.462;2022-07-23T11:53:48;8.10;;;6.50;;
22150;SDS011;11241;47.078;15.462;2022-07-23T11:56:07;7.18;;;6.47;;
22150;SDS011;11241;47.078;15.462;2022-07-23T11:58:26;8.18;;;6.72;;
22150;SDS011;11241;47.078;15.462;2022-07-23T12:00:44;8.55;;;7.07;;
22150;SDS011;11241;47.078;15.462;2022-07-23T12:03:03;8.73;;;7.05;;
22150;SDS011;11241;47.078;15.462;2022-07-23T12:05:23;8.05;;;7.25;;
22150;SDS011;11241;47.078;15.462;2022-07-23T12:07:42;10.00;;;6.60;;
22150;SDS011;11241;47.078;15.462;2022-07-23T12:10:08;7.70;;;6.13;;
22150;SDS011;11241;47.078;15.462;2022-07-23T12:12:27;7.18;;;6.32;;
22150;SDS011;11241;47.078;15.462;2022-07-23T12:14:48;9.13;;;6.68;;
22150;SDS011;11241;47.078;15.462;2022-07-23T12:17:09;9.32;;;6.80;;
22150;SDS011;11241;47.078;15.462;2022-07-23T12:19:27;9.23;;;7.30;;
22150;SDS011;11241;47.078;15.462;2022-07-23T12:21:45;8.65;;;6.97;;
22150;SDS011;11241;47.078;15.462;2022-07-23T12:24:06;7.00;;;6.10;;
22150;SDS011;11241;47.078;15.462;2022-07-23T12:26:25;7.00;;;6.32;;
22150;SDS011;11241;47.078;15.462;2022-07-23T12:28:42;7.35;;;6.47;;
22150;SDS011;11241;47.078;15.462;2022-07-23T12:31:09;8.82;;;6.57;;
22150;SDS011;11241;47.078;15.462;2022-07-23T12:33:29;10.20;;;6.20;;
22150;SDS011;11241;47.078;15.462;2022-07-23T12:35:47;8.18;;;6.57;;
22150;SDS011;11241;47.078;15.462;2022-07-23T12:38:06;8.40;;;6.18;;
22150;SDS011;11241;47.078;15.462;2022-07-23T12:42:43;11.32;;;6.47;;
22150;SDS011;11241;47.078;15.462;2022-07-23T12:45:05;7.57;;;6.40;;
22150;SDS011;11241;47.078;15.462;2022-07-23T12:47:23;9.38;;;7.05;;
22150;SDS011;11241;47.078;15.462;2022-07-23T12:49:40;7.95;;;6.82;;
22150;SDS011;11241;47.078;15.462;2022-07-23T12:52:14;8.55;;;6.63;;
22150;SDS011;11241;47.078;15.462;2022-07-23T12:54:33;7.93;;;6.55;;
22150;SDS011;11241;47.078;15.462;2022-07-23T12:56:50;8.45;;;6.82;;
22150;SDS011;11241;47.078;15.462;2022-07-23T12:59:09;12.27;;;7.28;;
22150;SDS011;11241;47.078;15.462;2022-07-23T13:01:28;11.95;;;6.97;;
22150;SDS011;11241;47.078;15.462;2022-07-23T13:03:57;9.27;;;6.43;;
22150;SDS011;11241;47.078;15.462;2022-07-23T13:06:16;7.68;;;6.88;;
22150;SDS011;11241;47.078;15.462;2022-07-23T13:08:37;8.05;;;7.25;;
22150;SDS011;11241;47.078;15.462;2022-07-23T13:10:56;8.18;;;7.38;;
22150;SDS011;11241;47.078;15.462;2022-07-23T13:13:15;8.35;;;7.03;;
22150;SDS011;11241;47.078;15.462;2022-07-23T13:15:33;7.70;;;6.78;;
22150;SDS011;11241;47.078;15.462;2022-07-23T13:17:51;8.98;;;6.80;;
22150;SDS011;11241;47.078;15.462;2022-07-23T13:20:11;10.68;;;7.30;;
22150;SDS011;11241;47.078;15.462;2022-07-23T13:22:32;8.57;;;7.78;;
22150;SDS011;11241;47.078;15.462;2022-07-23T13:24:50;8.35;;;7.47;;
22150;SDS011;11241;47.078;15.462;2022-07-23T13:27:08;8.85;;;7.00;;
22150;SDS011;11241;47.078;15.462;2022-07-23T13:29:29;14.65;;;6.75;;
22150;SDS011;11241;47.078;15.462;2022-07-23T13:31:47;9.73;;;7.43;;
22150;SDS011;11241;47.078;15.462;2022-07-23T13:34:07;9.30;;;7.13;;
22150;SDS011;11241;47.078;15.462;2022-07-23T13:36:25;9.40;;;7.60;;
22150;SDS011;11241;47.078;15.462;2022-07-23T13:38:43;8.90;;;7.60;;
22150;SDS011;11241;47.078;15.462;2022-07-23T13:41:01;8.73;;;6.65;;
22150;SDS011;11241;47.078;15.462;2022-07-23T13:43:22;7.75;;;6.72;;
22150;SDS011;11241;47.078;15.462;2022-07-23T13:45:42;7.40;;;6.53;;
22150;SDS011;11241;47.078;15.462;2022-07-23T13:48:01;8.95;;;6.63;;
22150;SDS011;11241;47.078;15.462;2022-07-23T13:50:23;8.10;;;6.70;;
22150;SDS011;11241;47.078;15.462;2022-07-23T13:52:45;8.93;;;7.03;;
22150;SDS011;11241;47.078;15.462;2022-07-23T13:55:04;8.50;;;6.55;;
22150;SDS011;11241;47.078;15.462;2022-07-23T13:57:22;7.50;;;6.55;;
22150;SDS011;11241;47.078;15.462;2022-07-23T13:59:42;7.95;;;6.47;;
22150;SDS011;11241;47.078;15.462;2022-07-23T14:02:04;8.73;;;6.20;;
22150;SDS011;11241;47.078;15.462;2022-07-23T14:04:41;7.68;;;6.55;;
22150;SDS011;11241;47.078;15.462;2022-07-23T14:07:00;7.25;;;6.55;;
22150;SDS011;11241;47.078;15.462;2022-07-23T14:09:18;7.45;;;6.75;;
22150;SDS011;11241;47.078;15.462;2022-07-23T14:11:36;7.30;;;6.50;;